Time;durP1;ratioP1;P1;durP2;ratioP2;P2;SDS_P1;SDS_P2;PMS_P1;PMS_P2;Temp;Humidity;BMP_temperature;BMP_pressure;BME280_temperature;BME280_humidity;BME280_pressure;Samples;Min_cycle;Max_cycle;Signal;HPM_P1;HPM_P2
2022/04/24 00:01:44;;;;;;;21.85;13.95;;;;;;;14.39;51.76;98051.63;4986218;28;20042;-80
2022/04/24 00:04:11;;;;;;;21.35;13.30;;;;;;;14.39;51.81;98051.63;4987693;28;20042;-80
2022/04/24 00:06:39;;;;;;;21.90;12.70;;;;;;;14.45;51.89;98050.84;4988380;28;20042;-80
2022/04/24 00:09:06;;;;;;;23.33;14.23;;;;;;;14.40;51.84;98055.97;4987705;28;20056;-80
2022/04/24 00:11:32;;;;;;;21.67;14.15;;;;;;;14.43;51.88;98060.88;4982560;28;20042;-80
2022/04/24 00:13:59;;;;;;;21.60;13.25;;;;;;;14.46;51.71;98057.81;4985406;28;20042;-80
2022/04/24 00:16:26;;;;;;;20.50;12.50;;;;;;;14.35;51.78;98053.09;4975732;28;20452;-80
2022/04/24 00:18:53;;;;;;;27.70;14.68;;;;;;;14.40;51.93;98058.63;4992434;28;20050;-80
2022/04/24 00:21:20;;;;;;;18.17;12.27;;;;;;;14.44;51.77;98057.19;4989693;28;20050;-80
2022/04/24 00:23:46;;;;;;;27.02;14.25;;;;;;;14.50;51.76;98044.84;4982610;28;20117;-80
2022/04/24 00:26:13;;;;;;;20.58;13.00;;;;;;;14.50;51.79;98048.38;4953375;28;20043;-80
2022/04/24 00:28:40;;;;;;;22.52;13.32;;;;;;;14.45;51.92;98042.81;4976483;28;20050;-80
2022/04/24 00:31:06;;;;;;;23.30;13.93;;;;;;;14.46;51.89;98036.44;4974943;28;20407;-80
2022/04/24 00:33:33;;;;;;;22.45;13.40;;;;;;;14.34;52.16;98038.06;4990113;28;20050;-80
2022/04/24 00:36:00;;;;;;;22.10;13.60;;;;;;;14.30;51.97;98039.53;4989415;28;20065;-80
2022/04/24 00:38:27;;;;;;;20.73;12.40;;;;;;;14.33;52.21;98031.91;4966956;28;20050;-80
2022/04/24 00:40:54;;;;;;;24.30;14.13;;;;;;;14.33;51.79;98028.44;4983344;28;20069;-80
2022/04/24 00:43:22;;;;;;;22.77;13.45;;;;;;;14.36;51.92;98029.88;4986214;28;20163;-80
2022/04/24 00:46:28;;;;;;;19.60;12.98;;;;;;;14.29;52.21;98024.50;4968424;28;20046;-80
2022/04/24 00:48:55;;;;;;;24.67;14.82;;;;;;;14.41;52.07;98019.41;4950154;28;20655;-82
2022/04/24 00:51:22;;;;;;;21.15;12.95;;;;;;;14.39;51.78;98016.91;4981310;28;20054;-82
2022/04/24 00:53:49;;;;;;;19.33;12.40;;;;;;;14.43;52.28;98025.34;4986684;28;20042;-83
2022/04/24 00:56:17;;;;;;;21.67;13.13;;;;;;;14.42;51.98;98019.16;4976681;28;20390;-83
2022/04/24 00:58:44;;;;;;;23.20;13.32;;;;;;;14.44;51.75;98006.44;4992643;28;20081;-82
2022/04/24 01:01:12;;;;;;;22.45;13.88;;;;;;;14.48;51.77;98009.53;4989501;28;20557;-83
2022/04/24 01:03:39;;;;;;;24.00;13.60;;;;;;;14.42;52.06;98011.16;4991330;28;20061;-83
2022/04/24 01:06:06;;;;;;;20.35;13.13;;;;;;;14.43;52.02;98012.00;4985969;28;20046;-83
2022/04/24 01:08:34;;;;;;;19.95;13.52;;;;;;;14.45;51.77;98007.25;4983330;28;20394;-83
2022/04/24 01:11:01;;;;;;;24.10;13.90;;;;;;;14.45;51.61;98007.25;4969248;28;20053;-83
2022/04/24 01:13:27;;;;;;;21.55;13.85;;;;;;;14.28;51.78;98007.69;4987076;28;20071;-83
2022/04/24 01:15:57;;;;;;;22.90;13.60;;;;;;;14.29;52.17;98011.97;4987976;28;20054;-83
2022/04/24 01:18:25;;;;;;;23.50;13.82;;;;;;;14.32;52.13;98013.41;4967814;28;20105;-83
2022/04/24 01:20:52;;;;;;;23.73;12.60;;;;;;;14.32;52.03;98019.59;4985713;28;20042;-83
2022/04/24 01:23:19;;;;;;;18.90;11.98;;;;;;;14.28;52.28;98018.34;4985371;28;20046;-83
2022/04/24 01:25:45;;;;;;;20.17;12.85;;;;;;;14.33;52.26;98018.56;4984375;28;20042;-83
2022/04/24 01:28:12;;;;;;;19.52;13.23;;;;;;;14.27;52.07;98007.88;4969274;28;20516;-83
2022/04/24 01:30:39;;;;;;;24.35;13.25;;;;;;;14.33;51.95;98015.06;4986309;28;20057;-83
2022/04/24 01:33:06;;;;;;;20.85;13.05;;;;;;;14.33;52.11;98007.06;4983246;28;20050;-83
2022/04/24 01:35:33;;;;;;;27.02;14.45;;;;;;;14.31;52.06;98004.59;4976337;28;20046;-83
2022/04/24 01:37:59;;;;;;;24.33;14.50;;;;;;;14.30;52.07;98002.97;4984800;28;20057;-84
2022/04/24 01:40:26;;;;;;;22.75;13.10;;;;;;;14.23;52.19;98002.13;4986390;28;20536;-83
2022/04/24 01:42:53;;;;;;;20.08;13.15;;;;;;;14.18;52.36;98006.44;4988144;28;20129;-83
2022/04/24 01:45:20;;;;;;;25.13;13.32;;;;;;;14.22;52.14;97991.63;4984298;28;20062;-83
2022/04/24 01:47:46;;;;;;;24.45;13.82;;;;;;;14.26;51.97;97995.56;4986412;28;20053;-84
2022/04/24 01:50:13;;;;;;;19.35;12.50;;;;;;;14.28;52.00;97982.84;4988074;28;20137;-84
2022/04/24 01:52:40;;;;;;;21.40;13.02;;;;;;;14.28;52.15;97991.66;4979732;28;20568;-84
2022/04/24 01:55:06;;;;;;;22.98;13.30;;;;;;;14.26;52.38;97988.38;4980396;28;20641;-84
2022/04/24 01:57:37;;;;;;;20.25;12.45;;;;;;;14.28;52.24;97969.47;4969865;28;20450;-84
2022/04/24 02:00:06;;;;;;;18.83;12.82;;;;;;;14.32;51.67;97973.38;4971924;28;20053;-84
2022/04/24 02:02:38;;;;;;;22.83;13.20;;;;;;;14.26;51.96;97972.34;4967476;28;20046;-83
2022/04/24 02:05:05;;;;;;;20.27;13.02;;;;;;;14.26;51.64;97964.34;4989636;28;20061;-83
2022/04/24 02:07:32;;;;;;;21.45;13.13;;;;;;;14.21;51.99;97964.13;4988116;28;20229;-83
2022/04/24 02:09:59;;;;;;;22.52;13.20;;;;;;;14.15;52.26;97956.94;4988197;28;20142;-83
2022/04/24 02:12:25;;;;;;;22.15;13.32;;;;;;;14.27;51.91;97960.66;4991492;28;20046;-84
2022/04/24 02:14:52;;;;;;;20.88;13.43;;;;;;;14.18;51.85;97950.38;4984285;28;20100;-84
2022/04/24 02:17:19;;;;;;;24.58;14.23;;;;;;;13.96;52.38;97955.06;4986534;28;20126;-83
2022/04/24 02:19:46;;;;;;;23.58;13.63;;;;;;;14.07;52.00;97954.50;4986289;28;20490;-83
2022/04/24 02:22:12;;;;;;;23.80;13.30;;;;;;;14.02;52.34;97954.28;4986739;28;20052;-80
2022/04/24 02:24:39;;;;;;;22.08;13.55;;;;;;;14.04;52.43;97946.88;4984976;28;20058;-80
2022/04/24 02:27:09;;;;;;;25.05;13.57;;;;;;;14.03;52.12;97959.41;4982807;28;20133;-81
2022/04/24 02:29:36;;;;;;;19.83;12.93;;;;;;;14.02;52.59;97962.28;4984240;28;20074;-80
2022/04/24 02:32:02;;;;;;;19.85;12.40;;;;;;;14.06;52.28;97960.84;4983083;28;20088;-80
2022/04/24 02:34:29;;;;;;;19.45;12.60;;;;;;;14.06;52.45;97963.50;4987962;28;20125;-80
2022/04/24 02:36:56;;;;;;;19.65;12.55;;;;;;;14.11;52.23;97972.53;4984707;28;20047;-80
2022/04/24 02:39:23;;;;;;;22.42;12.52;;;;;;;14.04;52.24;97978.91;4988739;28;20042;-80
2022/04/24 02:41:49;;;;;;;23.08;12.50;;;;;;;14.05;52.33;97976.03;4991349;28;20386;-80
2022/04/24 02:44:21;;;;;;;22.65;12.85;;;;;;;14.07;52.23;97989.19;4967670;28;20521;-80
2022/04/24 02:46:48;;;;;;;22.27;12.95;;;;;;;14.10;52.52;97992.25;4989328;28;20042;-80
2022/04/24 02:49:14;;;;;;;22.05;12.98;;;;;;;14.13;52.28;98011.56;4978513;28;20042;-80
2022/04/24 02:51:41;;;;;;;21.65;14.00;;;;;;;14.14;52.27;98015.88;4987923;28;20119;-80
2022/04/24 02:54:08;;;;;;;23.42;12.63;;;;;;;14.15;52.24;98022.88;4988619;28;20132;-80
2022/04/24 02:56:35;;;;;;;18.10;11.38;;;;;;;14.16;52.30;98036.00;4967337;28;20038;-80
2022/04/24 02:59:02;;;;;;;22.52;12.68;;;;;;;14.18;52.60;98043.81;4985334;28;20038;-80
2022/04/24 03:01:30;;;;;;;19.23;11.82;;;;;;;14.20;52.53;98044.44;4985852;28;20405;-80
2022/04/24 03:03:57;;;;;;;17.92;11.73;;;;;;;14.21;52.49;98057.56;4984125;28;20050;-80
2022/04/24 03:06:26;;;;;;;18.63;11.38;;;;;;;14.20;52.61;98050.59;4971538;28;20049;-80
2022/04/24 03:08:53;;;;;;;18.08;11.38;;;;;;;14.21;52.84;98060.22;4990991;28;20046;-80
2022/04/24 03:11:19;;;;;;;17.55;10.75;;;;;;;14.21;52.76;98056.75;4993096;28;20240;-80
2022/04/24 03:13:46;;;;;;;19.73;11.48;;;;;;;14.22;53.10;98058.38;4989190;28;20042;-80
2022/04/24 03:16:13;;;;;;;19.75;11.07;;;;;;;14.22;53.19;98056.56;4974160;28;20523;-80
2022/04/24 03:18:40;;;;;;;19.35;12.05;;;;;;;14.22;53.11;98058.38;4984144;28;20038;-80
2022/04/24 03:21:07;;;;;;;18.55;11.20;;;;;;;14.21;53.39;98057.56;4961686;28;20099;-80
2022/04/24 03:23:33;;;;;;;17.27;10.80;;;;;;;14.22;53.27;98058.38;4990515;28;20038;-80
2022/04/24 03:26:00;;;;;;;19.35;11.02;;;;;;;14.21;53.47;98062.09;4992674;28;20049;-80
2022/04/24 03:28:27;;;;;;;20.17;12.45;;;;;;;14.21;53.62;98068.25;4968050;28;20056;-80
2022/04/24 03:30:54;;;;;;;23.40;13.32;;;;;;;14.21;53.91;98067.41;4987182;28;20676;-80
2022/04/24 03:33:21;;;;;;;20.33;12.27;;;;;;;14.21;54.29;98076.25;4990070;28;20537;-80
2022/04/24 03:35:48;;;;;;;23.15;13.38;;;;;;;14.22;54.46;98077.06;4957039;28;20506;-80
2022/04/24 03:38:15;;;;;;;23.77;14.55;;;;;;;14.22;54.89;98088.59;4972376;28;20053;-81
2022/04/24 03:40:42;;;;;;;29.20;14.23;;;;;;;14.20;55.10;98087.97;4986945;28;20371;-79
2022/04/24 03:43:09;;;;;;;22.67;14.10;;;;;;;14.20;55.29;98087.16;4982263;28;20050;-80
2022/04/24 03:45:35;;;;;;;20.33;13.18;;;;;;;14.20;55.92;98095.97;4988435;28;20474;-81
2022/04/24 03:48:02;;;;;;;23.20;14.18;;;;;;;14.19;55.77;98099.66;4995637;28;20042;-80
2022/04/24 03:50:29;;;;;;;29.60;15.57;;;;;;;14.19;56.31;98096.16;4995382;28;20717;-81
2022/04/24 03:52:56;;;;;;;30.67;15.30;;;;;;;14.17;57.27;98101.72;4991581;28;20054;-81
2022/04/24 03:55:23;;;;;;;26.33;15.73;;;;;;;14.18;57.73;98097.19;4993673;28;20056;-81
2022/04/24 03:57:49;;;;;;;27.85;15.77;;;;;;;14.16;57.62;98093.91;4992526;28;20047;-81
2022/04/24 04:00:17;;;;;;;29.27;16.60;;;;;;;14.15;58.13;98094.94;4991879;28;20606;-81
2022/04/24 04:02:45;;;;;;;26.58;15.57;;;;;;;14.12;57.62;98096.16;4993468;28;20046;-81
2022/04/24 04:05:13;;;;;;;28.40;16.52;;;;;;;14.10;58.29;98093.69;4989908;28;20138;-81
2022/04/24 04:07:39;;;;;;;30.15;18.00;;;;;;;14.06;58.76;98095.09;4991431;28;20165;-81
2022/04/24 04:10:08;;;;;;;31.08;16.98;;;;;;;14.01;59.32;98092.22;4986386;28;20042;-81
2022/04/24 04:12:35;;;;;;;35.10;17.75;;;;;;;13.99;59.65;98091.59;4972909;28;20046;-81
2022/04/24 04:15:03;;;;;;;31.75;17.45;;;;;;;13.97;59.05;98092.78;4992304;28;20042;-81
2022/04/24 04:17:30;;;;;;;28.48;15.65;;;;;;;13.90;58.85;98088.28;4987587;28;20047;-81
2022/04/24 04:19:57;;;;;;;28.80;17.23;;;;;;;13.93;58.80;98089.72;5008354;28;20054;-81
2022/04/24 04:22:24;;;;;;;29.75;16.40;;;;;;;13.83;59.04;98089.28;4990707;28;20421;-81
2022/04/24 04:24:52;;;;;;;28.52;16.23;;;;;;;13.77;58.81;98087.41;4994808;28;20061;-81
2022/04/24 04:27:19;;;;;;;29.33;16.60;;;;;;;13.70;59.38;98081.22;4980978;28;20129;-81
2022/04/24 04:29:46;;;;;;;31.30;17.60;;;;;;;13.71;59.52;98081.00;4989985;28;20046;-81
2022/04/24 04:32:12;;;;;;;30.55;17.40;;;;;;;13.61;59.80;98078.72;4990794;28;20058;-81
2022/04/24 04:34:39;;;;;;;33.35;16.80;;;;;;;13.55;59.72;98068.84;4985391;28;20406;-82
2022/04/24 04:37:07;;;;;;;29.02;16.42;;;;;;;13.55;59.89;98079.50;4981243;28;20043;-82
2022/04/24 04:39:34;;;;;;;29.40;16.15;;;;;;;13.53;60.15;98073.53;4990343;28;20497;-81
2022/04/24 04:42:06;;;;;;;32.88;17.65;;;;;;;13.54;59.79;98090.38;4961254;28;20133;-81
2022/04/24 04:44:33;;;;;;;30.20;17.02;;;;;;;13.51;59.91;98080.94;5000892;28;21071;-81
2022/04/24 04:47:00;;;;;;;30.92;16.52;;;;;;;13.51;60.04;98088.09;4986017;28;20046;-82
2022/04/24 04:49:28;;;;;;;25.08;15.40;;;;;;;13.50;60.29;98084.59;4990476;28;20129;-82
2022/04/24 04:51:54;;;;;;;29.75;16.38;;;;;;;13.49;60.19;98090.16;4968781;28;20064;-81
2022/04/24 04:54:21;;;;;;;29.98;15.85;;;;;;;13.47;60.06;98093.00;4983719;28;20042;-81
2022/04/24 04:56:48;;;;;;;29.38;17.15;;;;;;;13.39;60.41;98091.31;4986463;28;20050;-81
2022/04/24 04:59:15;;;;;;;30.00;15.50;;;;;;;13.27;60.73;98092.88;4975255;28;20050;-81
2022/04/24 05:01:41;;;;;;;25.23;15.25;;;;;;;13.31;61.21;98102.16;4950136;28;20461;-81
2022/04/24 05:04:08;;;;;;;23.02;14.60;;;;;;;13.34;60.57;98091.09;4964245;28;20058;-81
2022/04/24 05:06:37;;;;;;;27.20;15.32;;;;;;;13.33;60.42;98093.94;4985476;28;20121;-81
2022/04/24 05:09:04;;;;;;;32.92;15.65;;;;;;;13.32;60.82;98094.97;4985489;28;20398;-81
2022/04/24 05:11:31;;;;;;;24.73;15.63;;;;;;;13.33;60.74;98094.78;4984388;28;20101;-81
2022/04/24 05:13:58;;;;;;;28.60;14.90;;;;;;;13.34;60.86;98096.41;4969553;28;20053;-81
2022/04/24 05:16:31;;;;;;;29.88;14.82;;;;;;;13.34;61.21;98091.09;4984921;28;20078;-81
2022/04/24 05:18:58;;;;;;;22.48;13.82;;;;;;;13.37;61.19;98096.03;4985597;28;20104;-81
2022/04/24 05:21:25;;;;;;;30.65;16.00;;;;;;;13.38;61.37;98100.34;4981638;28;20100;-81
2022/04/24 05:23:52;;;;;;;27.60;16.00;;;;;;;13.39;61.44;98103.84;4987238;28;20114;-82
2022/04/24 05:26:19;;;;;;;28.17;14.45;;;;;;;13.40;61.69;98100.13;4982721;28;20070;-81
2022/04/24 05:28:45;;;;;;;27.42;14.25;;;;;;;13.39;61.25;98110.00;4986227;28;20046;-81
2022/04/24 05:31:12;;;;;;;26.27;14.32;;;;;;;13.38;61.74;98115.50;4963258;28;20438;-80
2022/04/24 05:33:39;;;;;;;21.20;13.02;;;;;;;13.37;61.23;98122.69;4988234;28;20062;-80
2022/04/24 05:36:06;;;;;;;25.58;14.15;;;;;;;13.36;60.77;98129.03;4990139;28;20085;-80
2022/04/24 05:38:33;;;;;;;25.73;14.00;;;;;;;13.31;61.31;98128.81;4973872;28;20050;-80
2022/04/24 05:41:01;;;;;;;29.27;14.55;;;;;;;13.29;60.79;98128.19;4988155;28;20052;-80
2022/04/24 05:43:28;;;;;;;26.50;15.18;;;;;;;13.25;60.90;98140.19;4973599;28;20120;-80
2022/04/24 05:45:55;;;;;;;23.40;14.32;;;;;;;13.25;60.81;98130.38;4986880;28;20053;-85
2022/04/24 05:48:22;;;;;;;28.17;14.30;;;;;;;13.23;60.91;98140.41;4984342;28;20439;-83
2022/04/24 05:50:48;;;;;;;25.63;14.00;;;;;;;13.23;61.29;98143.06;4986265;28;20042;-84
2022/04/24 05:53:17;;;;;;;23.48;13.65;;;;;;;13.21;60.93;98153.09;4984464;28;20042;-84
2022/04/24 05:55:44;;;;;;;26.33;13.63;;;;;;;13.22;60.90;98143.25;4980513;28;20126;-84
2022/04/24 05:58:11;;;;;;;23.88;14.02;;;;;;;13.19;61.04;98144.47;4984811;28;20049;-84
2022/04/24 06:00:38;;;;;;;24.92;14.38;;;;;;;13.19;60.95;98143.66;4972112;28;20173;-84
2022/04/24 06:03:05;;;;;;;24.95;12.68;;;;;;;13.14;61.14;98146.91;4988315;28;20046;-84
2022/04/24 06:05:32;;;;;;;21.85;12.70;;;;;;;13.11;61.07;98147.28;4986094;28;20055;-84
2022/04/24 06:07:59;;;;;;;23.55;13.57;;;;;;;13.08;61.34;98149.50;4988904;28;20046;-84
2022/04/24 06:10:25;;;;;;;25.05;12.85;;;;;;;13.07;60.99;98154.00;4972708;28;20645;-84
2022/04/24 06:12:54;;;;;;;24.50;13.38;;;;;;;13.02;60.97;98151.91;5000302;28;20391;-84
2022/04/24 06:15:24;;;;;;;24.25;13.70;;;;;;;13.03;61.14;98158.91;4987159;28;20034;-84
2022/04/24 06:17:57;;;;;;;23.38;12.65;;;;;;;12.96;61.27;98154.53;4972074;28;20073;-84
2022/04/24 06:20:26;;;;;;;21.88;12.70;;;;;;;12.96;61.47;98158.03;4986713;28;20101;-84
2022/04/24 06:22:58;;;;;;;23.70;11.75;;;;;;;12.98;61.36;98158.66;4985634;28;20069;-84
2022/04/24 06:25:27;;;;;;;20.30;11.93;;;;;;;12.97;61.45;98161.50;4982468;28;20051;-84
2022/04/24 06:27:54;;;;;;;21.15;12.20;;;;;;;12.97;61.45;98154.34;4984254;28;20043;-84
2022/04/24 06:30:23;;;;;;;21.00;11.18;;;;;;;12.97;61.15;98149.00;4964489;28;20042;-84
2022/04/24 06:32:50;;;;;;;26.08;12.15;;;;;;;12.97;61.26;98142.84;4975656;28;20043;-85
2022/04/24 06:35:17;;;;;;;21.52;12.18;;;;;;;12.96;60.53;98143.88;4971100;28;20053;-84
2022/04/24 06:37:46;;;;;;;21.13;11.32;;;;;;;12.85;60.71;98139.91;4989275;28;20113;-84
2022/04/24 06:40:15;;;;;;;21.00;11.80;;;;;;;12.84;60.95;98148.06;4987003;28;20497;-85
2022/04/24 06:42:49;;;;;;;24.33;10.98;;;;;;;12.74;61.07;98143.88;5001774;28;20121;-85
2022/04/24 06:45:17;;;;;;;20.75;12.00;;;;;;;12.79;61.16;98144.13;4989732;28;20045;-84
2022/04/24 06:47:46;;;;;;;24.58;11.77;;;;;;;12.80;61.30;98150.31;4965817;28;20060;-84
2022/04/24 06:50:13;;;;;;;24.27;11.57;;;;;;;12.77;61.18;98146.19;5000640;28;20049;-84
2022/04/24 06:52:40;;;;;;;24.23;12.75;;;;;;;12.77;61.32;98145.34;4987539;28;20038;-83
2022/04/24 06:55:07;;;;;;;22.35;11.73;;;;;;;12.75;61.62;98140.22;4950533;28;20039;-84
2022/04/24 06:57:34;;;;;;;23.60;12.85;;;;;;;12.77;61.46;98143.53;4983390;28;20043;-84
2022/04/24 07:00:01;;;;;;;16.30;10.55;;;;;;;12.73;61.55;98142.25;4984236;28;20074;-84
2022/04/24 07:02:27;;;;;;;18.42;10.57;;;;;;;12.73;61.85;98139.59;4983352;28;20421;-84
2022/04/24 07:04:54;;;;;;;24.25;11.23;;;;;;;12.75;61.60;98142.88;4960988;28;20112;-84
2022/04/24 07:07:21;;;;;;;19.90;11.30;;;;;;;12.74;62.01;98138.56;4967289;28;20038;-84
2022/04/24 07:09:48;;;;;;;20.15;10.98;;;;;;;12.76;61.80;98149.03;4981745;28;20057;-84
2022/04/24 07:12:14;;;;;;;22.77;11.65;;;;;;;12.75;62.08;98134.91;4969056;28;20089;-84
2022/04/24 07:14:41;;;;;;;22.60;11.88;;;;;;;12.77;62.37;98135.53;4985631;28;20054;-83
2022/04/24 07:17:08;;;;;;;20.48;11.13;;;;;;;12.78;62.15;98134.50;4962279;28;20070;-84
2022/04/24 07:19:39;;;;;;;23.38;11.55;;;;;;;12.75;63.00;98139.41;4966977;28;20049;-84
2022/04/24 07:22:07;;;;;;;23.10;12.20;;;;;;;12.78;62.45;98139.84;4982584;28;20508;-83
2022/04/24 07:24:34;;;;;;;21.33;12.15;;;;;;;12.76;62.31;98144.53;4970212;28;20420;-84
2022/04/24 07:27:01;;;;;;;24.80;12.35;;;;;;;12.78;62.24;98147.00;4967299;28;20066;-84
2022/04/24 07:29:27;;;;;;;22.92;10.88;;;;;;;12.76;62.30;98146.38;4969114;28;20047;-84
2022/04/24 07:31:54;;;;;;;20.13;11.60;;;;;;;12.76;62.30;98149.03;4967790;28;20084;-83
2022/04/24 07:34:21;;;;;;;22.73;11.98;;;;;;;12.75;62.34;98148.22;4968239;28;20395;-84
2022/04/24 07:36:48;;;;;;;22.67;11.88;;;;;;;12.73;62.34;98150.25;4981574;28;20057;-83
2022/04/24 07:39:15;;;;;;;23.00;12.13;;;;;;;12.74;62.45;98157.22;4983894;28;20490;-82
2022/04/24 07:41:42;;;;;;;22.98;12.15;;;;;;;12.73;62.74;98158.22;4983510;28;20038;-84
2022/04/24 07:44:09;;;;;;;21.67;12.13;;;;;;;12.74;63.71;98162.53;4940202;28;20440;-84
2022/04/24 07:46:42;;;;;;;24.25;12.85;;;;;;;12.72;63.72;98167.25;4980994;28;20117;-82
2022/04/24 07:49:08;;;;;;;22.92;12.07;;;;;;;12.75;63.72;98168.72;4986206;28;20537;-85
2022/04/24 07:51:35;;;;;;;24.52;12.73;;;;;;;12.77;63.77;98179.97;4988473;28;20486;-82
2022/04/24 07:54:03;;;;;;;25.58;13.57;;;;;;;12.78;64.13;98166.47;4990570;28;20053;-83
2022/04/24 07:56:32;;;;;;;19.85;12.13;;;;;;;12.77;64.18;98180.81;4955380;28;20137;-82
2022/04/24 07:59:25;;;;;;;24.98;14.80;;;;;;;12.65;65.19;98178.84;4987556;28;20058;-82
2022/04/24 08:01:54;;;;;;;25.42;13.65;;;;;;;12.76;64.00;98170.34;4970287;28;20054;-83
2022/04/24 08:04:21;;;;;;;25.73;13.50;;;;;;;12.78;64.02;98171.81;4988243;28;20038;-83
2022/04/24 08:06:48;;;;;;;22.67;13.13;;;;;;;12.80;63.97;98166.28;4984933;28;20061;-81
2022/04/24 08:09:16;;;;;;;29.83;12.88;;;;;;;12.81;64.20;98170.59;4984272;28;20942;-84
2022/04/24 08:11:43;;;;;;;29.60;14.05;;;;;;;12.81;63.83;98171.41;4969158;28;20125;-84
2022/04/24 08:14:10;;;;;;;26.70;14.40;;;;;;;12.80;63.97;98167.13;4998984;28;20410;-84
2022/04/24 08:16:36;;;;;;;27.60;14.88;;;;;;;12.81;64.02;98168.75;4984131;28;20038;-85
2022/04/24 08:19:03;;;;;;;22.67;13.30;;;;;;;12.80;63.90;98171.63;4972981;28;20069;-85
2022/04/24 08:21:30;;;;;;;27.00;13.98;;;;;;;12.79;63.74;98173.44;4976992;28;20089;-85
2022/04/24 08:23:56;;;;;;;24.88;13.38;;;;;;;12.79;64.08;98180.59;4967674;28;20054;-85
2022/04/24 08:26:23;;;;;;;25.02;14.90;;;;;;;12.79;63.61;98188.59;4987095;28;20085;-83
2022/04/24 08:28:51;;;;;;;26.13;14.13;;;;;;;12.77;64.07;98188.81;4959171;28;20066;-83
2022/04/24 08:31:19;;;;;;;25.27;15.02;;;;;;;12.77;64.42;98198.63;4974519;28;20517;-82
2022/04/24 08:33:50;;;;;;;27.50;15.07;;;;;;;12.75;64.59;98209.47;4984905;28;20061;-83
2022/04/24 08:36:16;;;;;;;26.30;14.38;;;;;;;12.78;64.71;98197.63;4987412;28;20050;-83
2022/04/24 08:38:44;;;;;;;26.27;13.98;;;;;;;12.76;64.36;98200.47;4939396;28;20050;-82
2022/04/24 08:41:11;;;;;;;25.02;14.35;;;;;;;12.77;64.42;98201.28;4971688;28;20129;-82
2022/04/24 08:43:38;;;;;;;24.90;14.30;;;;;;;12.76;64.88;98202.31;4977867;28;20126;-84
2022/04/24 08:46:05;;;;;;;25.80;14.27;;;;;;;12.74;64.23;98202.47;4967892;28;20053;-83
2022/04/24 08:48:32;;;;;;;26.73;14.10;;;;;;;12.75;64.73;98208.66;4985107;28;20050;-84
2022/04/24 08:51:00;;;;;;;25.48;14.45;;;;;;;12.77;64.14;98214.59;4979222;28;20046;-83
2022/04/24 08:53:29;;;;;;;27.25;14.90;;;;;;;12.75;64.20;98208.66;4955093;28;20073;-83
2022/04/24 08:56:01;;;;;;;27.30;14.65;;;;;;;12.71;64.98;98216.19;4965616;28;20498;-83
2022/04/24 08:58:28;;;;;;;29.67;16.03;;;;;;;12.75;65.08;98213.97;4926505;28;20039;-84
2022/04/24 09:00:56;;;;;;;28.92;15.88;;;;;;;12.76;65.25;98221.78;4985215;28;20042;-83
2022/04/24 09:03:24;;;;;;;24.75;14.20;;;;;;;12.77;65.28;98218.09;4949310;28;20493;-84
2022/04/24 09:05:52;;;;;;;32.20;15.40;;;;;;;12.78;64.90;98219.75;4983263;28;20062;-84
2022/04/24 09:08:22;;;;;;;24.67;14.38;;;;;;;12.76;65.16;98218.28;4999696;28;20093;-82
2022/04/24 09:11:08;;;;;;;27.33;15.60;;;;;;;12.78;64.99;98216.25;4976242;28;20418;-82
2022/04/24 09:16:35;;;;;;;29.67;15.70;;;;;;;12.73;65.56;98219.50;4957173;28;20093;-83
2022/04/24 09:19:03;;;;;;;26.90;14.63;;;;;;;12.76;64.98;98220.94;4968086;28;20050;-82
2022/04/24 09:21:31;;;;;;;25.95;13.70;;;;;;;12.75;65.08;98220.13;4984379;28;20046;-83
2022/04/24 09:23:59;;;;;;;27.30;14.10;;;;;;;12.74;64.84;98222.97;4986987;28;20042;-82
2022/04/24 09:26:26;;;;;;;30.00;14.18;;;;;;;12.73;65.40;98214.16;4965783;28;20387;-82
2022/04/24 09:29:10;;;;;;;;;;;;;;;12.49;66.18;98217.16;4924533;28;20055;-82
2022/04/24 09:31:37;;;;;;;24.95;13.65;;;;;;;12.67;65.43;98230.06;5001871;28;19929;-84
2022/04/24 09:34:05;;;;;;;22.92;12.98;;;;;;;12.72;64.92;98232.97;4984311;28;20043;-83
2022/04/24 09:36:31;;;;;;;26.02;13.25;;;;;;;12.71;65.15;98232.16;4963703;28;20054;-84
2022/04/24 09:39:00;;;;;;;25.50;13.30;;;;;;;12.72;65.36;98232.97;4952592;28;20376;-83
2022/04/24 09:41:29;;;;;;;22.70;13.23;;;;;;;12.73;65.19;98237.31;4984955;28;20049;-83
2022/04/24 09:43:57;;;;;;;27.63;14.90;;;;;;;12.74;65.56;98245.09;4971051;28;20054;-84
2022/04/24 09:46:25;;;;;;;34.78;14.40;;;;;;;12.72;65.51;98243.63;4987077;28;20057;-84
2022/04/24 09:48:52;;;;;;;25.15;15.20;;;;;;;12.73;65.48;98253.28;4983091;28;20499;-84
2022/04/24 09:51:22;;;;;;;30.85;14.73;;;;;;;12.71;65.67;98252.66;4985705;28;20054;-83
2022/04/24 09:53:50;;;;;;;25.77;14.45;;;;;;;12.74;65.91;98254.94;4975362;28;20047;-84
2022/04/24 09:56:17;;;;;;;25.23;14.43;;;;;;;12.74;66.17;98260.25;4964658;28;20070;-82
2022/04/24 09:58:45;;;;;;;25.25;14.00;;;;;;;12.74;66.32;98262.91;4963574;28;20055;-83
2022/04/24 10:01:13;;;;;;;28.70;15.75;;;;;;;12.75;66.47;98276.06;4932638;28;20486;-81
2022/04/24 10:03:40;;;;;;;22.90;14.30;;;;;;;12.74;66.50;98273.56;4951455;28;20042;-81
2022/04/24 10:06:07;;;;;;;27.08;14.88;;;;;;;12.74;66.86;98270.91;4950822;28;20062;-81
2022/04/24 10:08:34;;;;;;;25.58;12.93;;;;;;;12.74;66.46;98277.06;4968134;28;20567;-81
2022/04/24 10:11:04;;;;;;;26.05;15.00;;;;;;;12.75;66.63;98278.72;4952253;28;20059;-81
2022/04/24 10:13:39;;;;;;;23.85;13.02;;;;;;;12.75;66.51;98275.25;4954038;28;20034;-80
2022/04/24 10:16:28;;;;;;;25.05;14.00;;;;;;;12.75;66.63;98277.91;4938618;28;20053;-83
2022/04/24 10:19:33;;;;;;;28.00;15.57;;;;;;;12.65;67.55;98286.19;4983164;28;20125;-81
2022/04/24 10:22:30;;;;;;;23.02;13.68;;;;;;;12.67;67.41;98286.84;4939565;28;20049;-83
2022/04/24 10:25:01;;;;;;;27.20;14.23;;;;;;;12.73;67.76;98291.41;4904747;28;20394;-84
2022/04/24 10:27:41;;;;;;;22.13;13.23;;;;;;;12.70;68.02;98291.78;4966803;28;20143;-83
2022/04/24 10:30:22;;;;;;;24.80;14.43;;;;;;;12.69;67.73;98295.44;4973210;28;20545;-83
2022/04/24 10:32:49;;;;;;;26.88;14.73;;;;;;;12.78;66.96;98296.16;4952536;28;20046;-84
2022/04/24 10:35:19;;;;;;;26.90;15.23;;;;;;;12.78;67.19;98301.50;4989658;28;20513;-83
2022/04/24 10:38:08;;;;;;;28.92;15.35;;;;;;;12.77;67.50;98300.69;4961323;28;20042;-83
2022/04/24 10:40:35;;;;;;;30.45;15.60;;;;;;;12.79;67.41;98305.81;4946019;28;20043;-84
2022/04/24 10:43:10;;;;;;;26.42;15.23;;;;;;;12.76;67.70;98311.50;4954126;28;20050;-82
2022/04/24 10:45:45;;;;;;;27.65;17.40;;;;;;;12.74;68.09;98313.53;4951775;28;20070;-82
2022/04/24 10:48:16;;;;;;;26.73;14.38;;;;;;;12.79;67.33;98308.47;4943061;28;20049;-82
2022/04/24 10:50:51;;;;;;;27.35;14.20;;;;;;;12.76;67.20;98314.16;4951373;28;20039;-83
2022/04/24 10:53:18;;;;;;;29.08;15.35;;;;;;;12.79;67.68;98319.13;4935335;28;20072;-82
2022/04/24 10:55:45;;;;;;;24.90;15.35;;;;;;;12.78;67.70;98326.28;4951274;28;20046;-83
2022/04/24 10:58:26;;;;;;;28.90;16.05;;;;;;;12.70;68.37;98317.59;4979533;28;20053;-84
2022/04/24 11:00:53;;;;;;;30.30;15.40;;;;;;;12.77;68.00;98323.81;4992661;28;20042;-82
2022/04/24 11:03:20;;;;;;;24.95;15.13;;;;;;;12.76;68.25;98314.16;4980811;28;20528;-82
2022/04/24 11:05:52;;;;;;;31.90;16.80;;;;;;;12.75;67.84;98316.00;4981181;28;20045;-83
2022/04/24 11:08:21;;;;;;;24.77;14.10;;;;;;;12.77;67.55;98329.13;4968567;28;20109;-83
2022/04/24 11:10:50;;;;;;;27.20;15.00;;;;;;;12.76;67.70;98316.84;4968814;28;20046;-84
2022/04/24 11:13:18;;;;;;;28.20;16.05;;;;;;;12.78;67.82;98318.28;4963488;28;20043;-84
2022/04/24 11:15:47;;;;;;;27.17;14.93;;;;;;;12.78;67.54;98309.50;4993215;28;20137;-83
2022/04/24 11:18:25;;;;;;;29.05;16.35;;;;;;;12.72;68.20;98313.72;4953381;28;20100;-81
2022/04/24 11:20:57;;;;;;;27.67;15.43;;;;;;;12.75;68.01;98320.53;5014024;28;20046;-81
2022/04/24 11:23:30;;;;;;;29.98;16.42;;;;;;;12.75;68.41;98317.84;4965845;28;20042;-82
2022/04/24 11:25:58;;;;;;;30.58;16.90;;;;;;;12.76;68.10;98317.66;4983861;28;20050;-81